createdAt,value
2022-09-18T00:01:39.691Z,99.98
2022-09-18T00:04:10.529Z,99.06
2022-09-18T00:06:39.961Z,98.70
2022-09-18T00:09:14.522Z,99.20
2022-09-18T00:11:46.323Z,98.91
2022-09-18T00:14:17.233Z,98.91
2022-09-18T00:16:45.352Z,98.68
2022-09-18T00:19:14.022Z,98.41
2022-09-18T00:21:44.642Z,98.05
2022-09-18T00:24:13.585Z,97.83
2022-09-18T00:26:41.504Z,97.44
2022-09-18T00:29:11.026Z,97.57
2022-09-18T00:31:39.475Z,97.98
2022-09-18T00:34:11.838Z,98.00
2022-09-18T00:36:40.153Z,98.05
2022-09-18T00:39:08.806Z,97.87
2022-09-18T00:41:40.592Z,98.40
2022-09-18T00:44:33.147Z,98.37
2022-09-18T00:47:09.776Z,98.52
2022-09-18T00:49:59.087Z,98.75
2022-09-18T00:52:32.954Z,99.06
2022-09-18T00:55:08.890Z,99.30
2022-09-18T00:57:41.731Z,99.04
2022-09-18T01:00:13.039Z,99.00
2022-09-18T01:02:44.940Z,99.19
2022-09-18T01:05:16.500Z,99.06
2022-09-18T01:08:07.912Z,99.48
2022-09-18T01:11:04.657Z,99.85
2022-09-18T01:13:51.876Z,99.92
2022-09-18T01:16:45.096Z,99.93
2022-09-18T01:19:47.241Z,99.98
2022-09-18T01:22:18.205Z,99.85
2022-09-18T01:24:53.951Z,99.74
2022-09-18T01:27:24.690Z,99.55
2022-09-18T01:30:04.864Z,99.55
2022-09-18T01:32:42.990Z,99.51
2022-09-18T01:35:40.650Z,99.48
2022-09-18T01:38:22.978Z,99.75
2022-09-18T01:40:53.587Z,100.00
2022-09-18T01:43:24.441Z,100.00
2022-09-18T01:45:55.225Z,100.00
2022-09-18T01:48:32.322Z,100.00
2022-09-18T01:51:14.522Z,100.00
2022-09-18T01:53:46.916Z,100.00
2022-09-18T01:56:22.708Z,100.00
2022-09-18T01:58:55.527Z,100.00
2022-09-18T02:01:29.804Z,100.00
2022-09-18T02:04:04.733Z,100.00
2022-09-18T02:06:41.989Z,100.00
2022-09-18T02:09:12.026Z,100.00
2022-09-18T02:11:45.502Z,99.80
2022-09-18T02:14:25.859Z,98.95
2022-09-18T02:17:31.189Z,98.99
2022-09-18T02:20:10.300Z,99.55
2022-09-18T02:22:40.964Z,99.78
2022-09-18T02:25:12.308Z,99.77
2022-09-18T02:27:42.520Z,99.71
2022-09-18T02:30:11.936Z,99.69
2022-09-18T02:32:41.063Z,99.91
2022-09-18T02:35:11.161Z,99.77
2022-09-18T02:37:50.308Z,100.00
2022-09-18T02:40:42.875Z,100.00
2022-09-18T02:43:57.554Z,100.00
2022-09-18T02:46:45.126Z,100.00
2022-09-18T02:49:42.355Z,100.00
2022-09-18T02:52:20.237Z,100.00
2022-09-18T02:54:56.233Z,100.00
2022-09-18T02:57:37.901Z,100.00
2022-09-18T03:00:12.822Z,100.00
2022-09-18T03:02:41.886Z,100.00
2022-09-18T03:05:11.027Z,100.00
2022-09-18T03:07:49.641Z,100.00
2022-09-18T03:10:17.772Z,100.00
2022-09-18T03:12:45.700Z,100.00
2022-09-18T03:15:13.720Z,100.00
2022-09-18T03:17:41.946Z,100.00
2022-09-18T03:20:10.037Z,100.00
2022-09-18T03:22:38.029Z,100.00
2022-09-18T03:25:06.873Z,100.00
2022-09-18T03:27:35.148Z,100.00
2022-09-18T03:30:03.835Z,100.00
2022-09-18T03:32:33.735Z,100.00
2022-09-18T03:35:01.611Z,100.00
2022-09-18T03:37:29.993Z,100.00
2022-09-18T03:39:59.563Z,100.00
2022-09-18T03:42:27.675Z,100.00
2022-09-18T03:44:57.688Z,100.00
2022-09-18T03:47:31.826Z,100.00
2022-09-18T03:50:02.660Z,100.00
2022-09-18T03:52:34.571Z,100.00
2022-09-18T03:55:11.886Z,100.00
2022-09-18T03:57:58.441Z,100.00
2022-09-18T04:00:46.834Z,100.00
2022-09-18T04:03:18.667Z,100.00
2022-09-18T04:05:51.000Z,100.00
2022-09-18T04:08:41.397Z,100.00
2022-09-18T04:11:26.149Z,100.00
2022-09-18T04:13:54.220Z,100.00
2022-09-18T04:16:23.045Z,100.00
2022-09-18T04:18:54.784Z,100.00
2022-09-18T04:21:23.228Z,100.00
2022-09-18T04:23:52.188Z,100.00
2022-09-18T04:26:20.273Z,100.00
2022-09-18T04:28:53.060Z,100.00
2022-09-18T04:31:22.646Z,100.00
2022-09-18T04:33:50.878Z,100.00
2022-09-18T04:36:19.630Z,100.00
2022-09-18T04:38:48.122Z,100.00
2022-09-18T04:41:16.124Z,100.00
2022-09-18T04:43:44.759Z,100.00
2022-09-18T04:46:13.220Z,100.00
2022-09-18T04:48:41.142Z,100.00
2022-09-18T04:51:09.379Z,100.00
2022-09-18T04:53:47.408Z,100.00
2022-09-18T04:56:15.469Z,100.00
2022-09-18T04:58:46.645Z,100.00
2022-09-18T05:01:15.059Z,100.00
2022-09-18T05:03:43.406Z,100.00
2022-09-18T05:06:16.657Z,100.00
2022-09-18T05:08:44.483Z,100.00
2022-09-18T05:11:12.411Z,100.00
2022-09-18T05:13:40.913Z,100.00
2022-09-18T05:16:14.135Z,100.00
2022-09-18T05:18:42.689Z,100.00
2022-09-18T05:21:10.720Z,100.00
2022-09-18T05:23:38.583Z,100.00
2022-09-18T05:26:07.009Z,100.00
2022-09-18T05:28:34.976Z,100.00
2022-09-18T05:31:03.414Z,100.00
2022-09-18T05:33:41.849Z,100.00
2022-09-18T05:36:12.185Z,100.00
2022-09-18T05:38:40.505Z,99.97
2022-09-18T05:41:09.821Z,99.68
2022-09-18T05:43:38.609Z,99.44
2022-09-18T05:46:12.088Z,99.53
2022-09-18T05:48:51.585Z,99.55
2022-09-18T05:51:20.250Z,99.62
2022-09-18T05:53:48.629Z,99.51
2022-09-18T05:56:42.706Z,99.42
2022-09-18T05:59:12.305Z,99.03
2022-09-18T06:01:44.848Z,99.26
2022-09-18T06:04:22.275Z,99.56
2022-09-18T06:06:56.974Z,99.43
2022-09-18T06:09:26.191Z,99.54
2022-09-18T06:11:54.159Z,99.67
2022-09-18T06:14:23.461Z,99.16
2022-09-18T06:16:51.856Z,99.12
2022-09-18T06:19:19.805Z,98.59
2022-09-18T06:21:49.308Z,98.30
2022-09-18T06:24:19.271Z,98.70
2022-09-18T06:26:57.936Z,98.05
2022-09-18T06:29:26.728Z,98.30
2022-09-18T06:31:59.559Z,97.90
2022-09-18T06:34:29.893Z,98.05
2022-09-18T06:37:02.109Z,98.26
2022-09-18T06:39:50.205Z,97.44
2022-09-18T06:42:27.224Z,97.04
2022-09-18T06:45:21.100Z,96.95
2022-09-18T06:47:54.600Z,96.45
2022-09-18T06:50:25.115Z,96.30
2022-09-18T06:52:53.094Z,96.53
2022-09-18T06:55:21.890Z,96.00
2022-09-18T06:57:56.720Z,95.69
2022-09-18T07:00:26.627Z,95.52
2022-09-18T07:02:59.644Z,95.81
2022-09-18T07:05:46.695Z,95.66
2022-09-18T07:08:25.391Z,95.33
2022-09-18T07:11:01.398Z,94.82
2022-09-18T07:13:33.767Z,93.85
2022-09-18T07:16:01.937Z,93.70
2022-09-18T07:18:30.252Z,93.10
2022-09-18T07:21:01.833Z,92.68
2022-09-18T07:23:34.941Z,92.73
2022-09-18T07:26:05.304Z,92.61
2022-09-18T07:28:34.185Z,92.25
2022-09-18T07:31:12.171Z,92.44
2022-09-18T07:33:40.878Z,93.37
2022-09-18T07:36:09.567Z,93.67
2022-09-18T07:38:38.141Z,93.29
2022-09-18T07:41:06.848Z,92.01
2022-09-18T07:43:35.821Z,90.56
2022-09-18T07:46:04.608Z,89.57
2022-09-18T07:48:35.441Z,89.27
2022-09-18T07:51:10.579Z,88.80
2022-09-18T07:53:39.354Z,87.77
2022-09-18T07:56:10.254Z,86.64
2022-09-18T07:58:39.310Z,86.04
2022-09-18T08:01:25.863Z,86.37
2022-09-18T08:03:57.045Z,86.77
2022-09-18T08:06:37.304Z,86.59
2022-09-18T08:09:17.009Z,87.13
2022-09-18T08:12:08.547Z,87.20
2022-09-18T08:14:52.755Z,86.22
2022-09-18T08:17:43.560Z,85.87
2022-09-18T08:20:29.853Z,86.41
2022-09-18T08:23:18.068Z,85.88
2022-09-18T08:25:47.674Z,84.83
2022-09-18T08:28:16.060Z,84.66
2022-09-18T08:30:50.580Z,83.54
2022-09-18T08:33:19.561Z,83.47
2022-09-18T08:35:47.634Z,81.46
2022-09-18T08:38:26.048Z,81.61
2022-09-18T08:41:43.000Z,80.45
2022-09-18T08:44:24.383Z,80.06
2022-09-18T08:47:10.546Z,79.24
2022-09-18T08:49:52.257Z,78.29
2022-09-18T08:52:25.817Z,78.75
2022-09-18T08:55:06.291Z,79.10
2022-09-18T08:58:00.093Z,78.24
2022-09-18T09:01:01.748Z,78.18
2022-09-18T09:03:59.032Z,77.27
2022-09-18T09:06:28.459Z,76.73
2022-09-18T09:09:21.493Z,74.89
2022-09-18T09:12:11.012Z,74.14
2022-09-18T09:15:11.124Z,73.96
2022-09-18T09:18:05.055Z,73.38
2022-09-18T09:20:42.037Z,71.08
2022-09-18T09:23:26.143Z,71.01
2022-09-18T09:26:01.463Z,72.00
2022-09-18T09:28:47.508Z,72.02
2022-09-18T09:31:34.139Z,71.06
2022-09-18T09:34:41.009Z,71.28
2022-09-18T09:37:43.528Z,71.91
2022-09-18T09:40:23.311Z,71.17
2022-09-18T09:43:26.997Z,68.75
2022-09-18T09:46:02.648Z,69.09
2022-09-18T09:48:35.422Z,68.44
2022-09-18T09:51:41.549Z,67.80
2022-09-18T09:54:12.481Z,67.81
2022-09-18T09:56:45.592Z,67.46
2022-09-18T09:59:39.554Z,67.82
2022-09-18T10:02:51.776Z,67.05
2022-09-18T10:05:28.058Z,67.27
2022-09-18T10:07:58.288Z,67.37
2022-09-18T10:10:59.016Z,68.02
2022-09-18T10:13:49.307Z,67.10
2022-09-18T10:16:25.817Z,66.18
2022-09-18T10:18:54.664Z,66.37
2022-09-18T10:21:27.588Z,65.31
2022-09-18T10:24:06.750Z,65.34
2022-09-18T10:26:51.978Z,65.72
2022-09-18T10:29:35.060Z,65.15
2022-09-18T10:32:07.111Z,63.54
2022-09-18T10:34:46.172Z,62.71
2022-09-18T10:37:37.874Z,63.24
2022-09-18T10:40:30.987Z,62.20
2022-09-18T10:43:01.083Z,62.03
2022-09-18T10:45:37.004Z,61.93
2022-09-18T10:48:26.184Z,60.88
2022-09-18T10:51:02.867Z,60.88
2022-09-18T10:53:43.436Z,60.19
2022-09-18T10:56:27.091Z,60.69
2022-09-18T10:58:57.453Z,60.62
2022-09-18T11:01:25.897Z,59.15
2022-09-18T11:04:05.834Z,60.03
2022-09-18T11:06:38.634Z,59.65
2022-09-18T11:09:39.317Z,59.32
2022-09-18T11:12:24.901Z,59.95
2022-09-18T11:15:04.485Z,60.19
2022-09-18T11:17:40.017Z,61.86
2022-09-18T11:20:20.831Z,61.97
2022-09-18T11:22:56.378Z,62.69
2022-09-18T11:25:29.487Z,63.09
2022-09-18T11:28:02.706Z,61.64
2022-09-18T11:30:38.809Z,61.95
2022-09-18T11:33:41.133Z,61.95
2022-09-18T11:36:13.057Z,60.19
2022-09-18T11:38:44.909Z,60.63
2022-09-18T11:41:22.484Z,60.10
2022-09-18T11:44:02.313Z,59.69
2022-09-18T11:47:11.525Z,57.91
2022-09-18T11:49:45.436Z,57.98
2022-09-18T11:52:36.724Z,58.60
2022-09-18T11:55:26.523Z,58.04
2022-09-18T11:58:01.723Z,58.82
2022-09-18T12:00:37.627Z,59.36
2022-09-18T12:03:19.302Z,60.92
2022-09-18T12:06:08.993Z,60.27
2022-09-18T12:09:15.648Z,59.90
2022-09-18T12:11:56.683Z,58.93
2022-09-18T12:14:47.211Z,58.95
2022-09-18T12:17:40.382Z,59.08
2022-09-18T12:20:18.815Z,59.09
2022-09-18T12:22:56.847Z,57.69
2022-09-18T12:25:50.727Z,57.64
2022-09-18T12:29:13.122Z,58.03
2022-09-18T12:32:01.791Z,57.06
2022-09-18T12:34:56.202Z,57.76
2022-09-18T12:37:36.122Z,58.41
2022-09-18T12:40:31.863Z,58.32
2022-09-18T12:43:41.332Z,58.39
2022-09-18T12:46:41.685Z,58.45
2022-09-18T12:49:46.922Z,58.18
2022-09-18T12:53:00.528Z,58.88
2022-09-18T12:55:59.671Z,58.61
2022-09-18T12:58:58.949Z,57.64
2022-09-18T13:02:22.668Z,57.02
2022-09-18T13:04:56.786Z,57.11
2022-09-18T13:07:30.919Z,55.81
2022-09-18T13:10:24.847Z,55.76
2022-09-18T13:12:59.445Z,56.81
2022-09-18T13:15:33.285Z,56.78
2022-09-18T13:18:23.743Z,56.64
2022-09-18T13:20:54.326Z,57.56
2022-09-18T13:23:35.395Z,58.09
2022-09-18T13:26:06.845Z,58.40
2022-09-18T13:28:35.173Z,58.37
2022-09-18T13:31:15.657Z,57.42
2022-09-18T13:34:04.656Z,56.89
2022-09-18T13:36:34.078Z,57.04
2022-09-18T13:39:17.727Z,57.51
2022-09-18T13:41:50.898Z,58.00
2022-09-18T13:44:31.635Z,58.13
2022-09-18T13:47:09.975Z,58.78
2022-09-18T13:49:57.442Z,59.91
2022-09-18T13:52:34.439Z,59.96
2022-09-18T13:55:31.326Z,59.68
2022-09-18T13:58:33.871Z,60.38
2022-09-18T14:01:07.638Z,60.35
2022-09-18T14:03:40.305Z,59.41
2022-09-18T14:06:36.674Z,58.61
2022-09-18T14:09:26.665Z,59.48
2022-09-18T14:11:54.843Z,60.26
2022-09-18T14:14:26.260Z,60.49
2022-09-18T14:16:56.289Z,60.98
2022-09-18T14:19:32.642Z,61.15
2022-09-18T14:22:01.554Z,61.65
2022-09-18T14:24:55.209Z,62.00
2022-09-18T14:27:57.159Z,62.23
2022-09-18T14:30:30.317Z,62.81
2022-09-18T14:33:03.630Z,61.62
2022-09-18T14:35:42.064Z,61.55
2022-09-18T14:38:31.617Z,61.99
2022-09-18T14:41:19.623Z,61.77
2022-09-18T14:43:56.088Z,62.18
2022-09-18T14:46:26.015Z,61.68
2022-09-18T14:48:55.114Z,61.57
2022-09-18T14:51:25.955Z,61.24
2022-09-18T14:53:54.765Z,59.56
2022-09-18T14:56:33.286Z,59.28
2022-09-18T14:59:05.496Z,59.98
2022-09-18T15:01:36.711Z,59.97
2022-09-18T15:04:12.769Z,59.48
2022-09-18T15:06:46.393Z,59.88
2022-09-18T15:09:20.876Z,60.63
2022-09-18T15:12:02.219Z,60.77
2022-09-18T15:14:44.181Z,60.65
2022-09-18T15:17:23.809Z,60.64
2022-09-18T15:20:22.054Z,60.14
2022-09-18T15:22:51.466Z,59.83
2022-09-18T15:25:34.696Z,59.39
2022-09-18T15:28:07.007Z,59.04
2022-09-18T15:30:40.463Z,59.04
2022-09-18T15:33:19.724Z,59.66
2022-09-18T15:35:52.036Z,59.87
2022-09-18T15:38:29.686Z,60.61
2022-09-18T15:40:57.769Z,60.80
2022-09-18T15:43:28.650Z,61.12
2022-09-18T15:46:06.987Z,60.96
2022-09-18T15:48:39.648Z,61.11
2022-09-18T15:51:22.463Z,61.08
2022-09-18T15:54:05.665Z,61.27
2022-09-18T15:56:35.381Z,60.56
2022-09-18T15:59:33.156Z,60.29
2022-09-18T16:02:08.338Z,59.81
2022-09-18T16:04:36.679Z,59.90
2022-09-18T16:07:18.570Z,60.14
2022-09-18T16:09:48.226Z,60.70
2022-09-18T16:12:31.464Z,60.95
2022-09-18T16:15:19.080Z,61.41
2022-09-18T16:17:46.998Z,61.79
2022-09-18T16:20:26.232Z,62.08
2022-09-18T16:23:03.019Z,62.58
2022-09-18T16:25:32.261Z,62.94
2022-09-18T16:28:02.093Z,63.55
2022-09-18T16:30:30.007Z,63.75
2022-09-18T16:33:13.721Z,64.11
2022-09-18T16:35:41.690Z,64.53
2022-09-18T16:38:09.763Z,64.92
2022-09-18T16:40:37.877Z,65.49
2022-09-18T16:43:05.766Z,65.85
2022-09-18T16:45:33.772Z,66.10
2022-09-18T16:48:01.698Z,66.43
2022-09-18T16:50:29.715Z,66.90
2022-09-18T16:53:01.421Z,67.73
2022-09-18T16:55:31.071Z,67.96
2022-09-18T16:57:59.653Z,68.18
2022-09-18T17:00:27.624Z,67.99
2022-09-18T17:02:57.815Z,67.88
2022-09-18T17:05:25.903Z,67.66
2022-09-18T17:07:53.873Z,67.87
2022-09-18T17:10:21.736Z,67.71
2022-09-18T17:12:49.647Z,67.63
2022-09-18T17:15:17.602Z,67.64
2022-09-18T17:17:45.753Z,67.66
2022-09-18T17:20:17.881Z,67.66
2022-09-18T17:22:46.565Z,67.65
2022-09-18T17:25:15.160Z,67.85
2022-09-18T17:27:43.825Z,67.99
2022-09-18T17:30:12.763Z,67.90
2022-09-18T17:32:40.765Z,68.13
2022-09-18T17:35:08.889Z,68.44
2022-09-18T17:37:36.865Z,68.63
2022-09-18T17:40:05.678Z,68.42
2022-09-18T17:42:34.043Z,68.40
2022-09-18T17:45:02.011Z,68.33
2022-09-18T17:47:29.951Z,68.58
2022-09-18T17:49:58.257Z,68.84
2022-09-18T17:52:26.260Z,68.60
2022-09-18T17:54:54.149Z,67.98
2022-09-18T17:57:22.161Z,67.67
2022-09-18T17:59:50.026Z,67.63
2022-09-18T18:02:18.192Z,67.63
2022-09-18T18:04:46.385Z,67.41
2022-09-18T18:07:14.834Z,67.29
2022-09-18T18:09:42.833Z,67.31
2022-09-18T18:12:11.084Z,67.40
2022-09-18T18:14:38.916Z,66.73
2022-09-18T18:17:07.250Z,66.55
2022-09-18T18:19:35.174Z,67.04
2022-09-18T18:22:03.029Z,67.38
2022-09-18T18:24:31.332Z,67.71
2022-09-18T18:26:59.508Z,68.18
2022-09-18T18:29:27.607Z,68.62
2022-09-18T18:31:55.640Z,68.82
2022-09-18T18:34:25.421Z,68.91
2022-09-18T18:36:53.349Z,69.37
2022-09-18T18:39:21.314Z,69.52
2022-09-18T18:41:49.891Z,69.40
2022-09-18T18:44:18.487Z,69.26
2022-09-18T18:46:46.570Z,69.11
2022-09-18T18:49:15.633Z,69.06
2022-09-18T18:51:47.941Z,68.90
2022-09-18T18:54:18.380Z,68.86
2022-09-18T18:56:47.237Z,68.85
2022-09-18T18:59:17.691Z,69.09
2022-09-18T19:01:47.579Z,69.40
2022-09-18T19:04:19.294Z,69.75
2022-09-18T19:06:49.541Z,70.10
2022-09-18T19:09:28.538Z,70.35
2022-09-18T19:11:57.551Z,70.59
2022-09-18T19:14:31.775Z,70.78
2022-09-18T19:17:00.856Z,71.25
2022-09-18T19:19:29.485Z,71.60
2022-09-18T19:22:00.370Z,71.49
2022-09-18T19:24:28.622Z,71.20
2022-09-18T19:26:57.868Z,71.06
2022-09-18T19:29:25.977Z,70.81
2022-09-18T19:31:53.914Z,70.72
2022-09-18T19:34:22.512Z,70.43
2022-09-18T19:36:52.020Z,70.43
2022-09-18T19:39:22.633Z,70.49
2022-09-18T19:41:59.191Z,70.43
2022-09-18T19:44:38.683Z,70.69
2022-09-18T19:47:19.614Z,70.99
2022-09-18T19:49:47.507Z,71.31
2022-09-18T19:52:18.490Z,71.47
2022-09-18T19:54:46.931Z,71.69
2022-09-18T19:57:15.880Z,71.66
2022-09-18T19:59:44.571Z,71.83
2022-09-18T20:02:20.014Z,72.52
2022-09-18T20:04:48.000Z,72.70
2022-09-18T20:07:15.973Z,72.81
2022-09-18T20:09:43.926Z,73.02
2022-09-18T20:12:12.800Z,72.66
2022-09-18T20:14:40.635Z,72.74
2022-09-18T20:17:09.998Z,72.49
2022-09-18T20:19:37.992Z,72.54
2022-09-18T20:22:07.148Z,72.60
2022-09-18T20:24:35.145Z,72.67
2022-09-18T20:27:03.292Z,73.26
2022-09-18T20:29:31.425Z,73.87
2022-09-18T20:31:59.481Z,74.66
2022-09-18T20:34:27.413Z,74.86
2022-09-18T20:36:55.272Z,74.67
2022-09-18T20:39:23.238Z,74.99
2022-09-18T20:41:51.271Z,75.51
2022-09-18T20:44:19.339Z,76.31
2022-09-18T20:46:47.275Z,77.09
2022-09-18T20:49:17.589Z,76.75
2022-09-18T20:51:46.187Z,76.69
2022-09-18T20:54:15.378Z,77.25
2022-09-18T20:56:44.694Z,78.15
2022-09-18T20:59:31.665Z,78.59
2022-09-18T21:01:59.575Z,78.45
2022-09-18T21:04:27.454Z,78.10
2022-09-18T21:06:58.934Z,78.58
2022-09-18T21:09:28.995Z,79.23
2022-09-18T21:11:57.163Z,79.84
2022-09-18T21:14:27.430Z,80.10
2022-09-18T21:16:56.065Z,80.43
2022-09-18T21:19:26.371Z,80.46
2022-09-18T21:21:54.423Z,81.44
2022-09-18T21:24:22.496Z,80.66
2022-09-18T21:26:50.894Z,80.15
2022-09-18T21:29:27.114Z,80.16
2022-09-18T21:32:02.245Z,80.89
2022-09-18T21:34:33.513Z,79.72
2022-09-18T21:37:08.271Z,78.93
2022-09-18T21:39:37.255Z,78.83
2022-09-18T21:42:07.343Z,78.94
2022-09-18T21:44:37.681Z,79.39
2022-09-18T21:47:08.029Z,79.05
2022-09-18T21:49:35.960Z,78.95
2022-09-18T21:52:07.349Z,79.30
2022-09-18T21:54:35.716Z,79.52
2022-09-18T21:57:04.836Z,79.04
2022-09-18T21:59:36.677Z,78.99
2022-09-18T22:02:05.745Z,79.22
2022-09-18T22:04:34.144Z,78.70
2022-09-18T22:07:02.602Z,78.67
2022-09-18T22:09:34.559Z,79.25
2022-09-18T22:12:03.040Z,78.90
2022-09-18T22:14:33.420Z,78.70
2022-09-18T22:17:03.817Z,78.70
2022-09-18T22:19:33.454Z,79.15
2022-09-18T22:22:01.882Z,79.19
2022-09-18T22:24:30.386Z,79.78
2022-09-18T22:27:02.668Z,79.65
2022-09-18T22:29:32.673Z,79.38
2022-09-18T22:32:01.594Z,79.05
2022-09-18T22:34:32.286Z,78.93
2022-09-18T22:37:01.288Z,79.28
2022-09-18T22:39:29.591Z,79.74
2022-09-18T22:41:58.052Z,79.86
2022-09-18T22:44:26.498Z,79.63
2022-09-18T22:46:54.462Z,80.22
2022-09-18T22:49:24.109Z,79.65
2022-09-18T22:51:52.585Z,80.20
2022-09-18T22:54:27.042Z,80.65
2022-09-18T22:56:56.415Z,80.65
2022-09-18T22:59:27.243Z,80.58
2022-09-18T23:01:59.331Z,80.49
2022-09-18T23:04:29.906Z,80.66
2022-09-18T23:06:59.311Z,80.54
2022-09-18T23:09:28.152Z,80.61
2022-09-18T23:11:57.949Z,80.41
2022-09-18T23:14:28.579Z,80.51
2022-09-18T23:16:58.483Z,80.92
2022-09-18T23:19:31.927Z,80.90
2022-09-18T23:22:00.461Z,81.58
2022-09-18T23:24:28.684Z,81.42
2022-09-18T23:26:58.454Z,81.86
2022-09-18T23:29:28.456Z,81.99
2022-09-18T23:31:59.458Z,82.18
2022-09-18T23:34:30.775Z,82.10
2022-09-18T23:36:59.844Z,81.50
2022-09-18T23:39:30.980Z,81.62
2022-09-18T23:42:01.529Z,81.58
2022-09-18T23:44:31.371Z,81.41
2022-09-18T23:47:00.341Z,81.38
2022-09-18T23:49:29.788Z,80.98
2022-09-18T23:51:59.576Z,81.30
2022-09-18T23:54:30.031Z,82.47
2022-09-18T23:56:58.335Z,81.97
2022-09-18T23:59:27.133Z,81.93
